Terminal Aerodrome Forecast
Issued by NWS Wilmington, OH

Current Version | Previous Version | Text Only | Print | Product List | Glossary Off
Versions: 1 2 3 4 5 6 7 8 9 10 11 12 13 14 15 16 17 18 19 20 21 22 23 24 25 26 27

000
FTUS41 KILN 240900 AAA
TAFCMH
TAF AMD
KCMH 240925Z 2409/2506 31005KT P6SM OVC012
      TEMPO 2410/2411 OVC009
     FM241400 25011KT P6SM SCT025 BKN060
     FM241800 25012G20KT P6SM OVC025
     FM250000 26008KT P6SM VCSH OVC022=

USA.gov is the U.S. government's official web portal to all federal, state and local government web resources and services.